sensor_id;sensor_type;location;lat;lon;timestamp;P1;durP1;ratioP1;P2;durP2;ratioP2
51194;SDS011;37259;49.972;19.850;2023-08-30T00:00:10;16.1;;;7.9;;
51194;SDS011;37259;49.972;19.850;2023-08-30T00:01:10;16.1;;;7.9;;
51194;SDS011;37259;49.972;19.850;2023-08-30T00:02:10;16.1;;;7.9;;
51194;SDS011;37259;49.972;19.850;2023-08-30T00:03:10;16.1;;;7.9;;
51194;SDS011;37259;49.972;19.850;2023-08-30T00:04:10;16.1;;;7.9;;
51194;SDS011;37259;49.972;19.850;2023-08-30T00:05:10;16.1;;;7.9;;
51194;SDS011;37259;49.972;19.850;2023-08-30T00:06:10;16.1;;;7.9;;
51194;SDS011;37259;49.972;19.850;2023-08-30T00:07:10;16.1;;;7.9;;
51194;SDS011;37259;49.972;19.850;2023-08-30T00:08:10;16.1;;;7.9;;
51194;SDS011;37259;49.972;19.850;2023-08-30T00:09:10;16.1;;;7.9;;
51194;SDS011;37259;49.972;19.850;2023-08-30T00:10:10;16.1;;;7.9;;
51194;SDS011;37259;49.972;19.850;2023-08-30T00:11:10;16.1;;;7.9;;
51194;SDS011;37259;49.972;19.850;2023-08-30T00:12:10;16.1;;;7.9;;
51194;SDS011;37259;49.972;19.850;2023-08-30T00:13:10;16.1;;;7.9;;
51194;SDS011;37259;49.972;19.850;2023-08-30T00:14:10;16.1;;;7.9;;
51194;SDS011;37259;49.972;19.850;2023-08-30T00:15:10;16.1;;;7.9;;
51194;SDS011;37259;49.972;19.850;2023-08-30T00:16:10;16.1;;;7.9;;
51194;SDS011;37259;49.972;19.850;2023-08-30T00:17:09;16.1;;;7.9;;
51194;SDS011;37259;49.972;19.850;2023-08-30T00:18:10;16.1;;;7.9;;
51194;SDS011;37259;49.972;19.850;2023-08-30T00:19:10;16.1;;;7.9;;
51194;SDS011;37259;49.972;19.850;2023-08-30T00:20:10;10.6;;;7.6;;
51194;SDS011;37259;49.972;19.850;2023-08-30T00:21:10;10.6;;;7.6;;
51194;SDS011;37259;49.972;19.850;2023-08-30T00:22:09;10.6;;;7.6;;
51194;SDS011;37259;49.972;19.850;2023-08-30T00:23:10;10.6;;;7.6;;
51194;SDS011;37259;49.972;19.850;2023-08-30T00:24:10;10.6;;;7.6;;
51194;SDS011;37259;49.972;19.850;2023-08-30T00:25:10;10.6;;;7.6;;
51194;SDS011;37259;49.972;19.850;2023-08-30T00:26:10;10.6;;;7.6;;
51194;SDS011;37259;49.972;19.850;2023-08-30T00:27:10;10.6;;;7.6;;
51194;SDS011;37259;49.972;19.850;2023-08-30T00:28:10;10.6;;;7.6;;
51194;SDS011;37259;49.972;19.850;2023-08-30T00:29:10;10.6;;;7.6;;
51194;SDS011;37259;49.972;19.850;2023-08-30T00:30:10;10.6;;;7.6;;
51194;SDS011;37259;49.972;19.850;2023-08-30T00:31:09;10.6;;;7.6;;
51194;SDS011;37259;49.972;19.850;2023-08-30T00:32:10;10.6;;;7.6;;
51194;SDS011;37259;49.972;19.850;2023-08-30T00:33:10;10.6;;;7.6;;
51194;SDS011;37259;49.972;19.850;2023-08-30T00:34:10;10.6;;;7.6;;
51194;SDS011;37259;49.972;19.850;2023-08-30T00:35:10;10.6;;;7.6;;
51194;SDS011;37259;49.972;19.850;2023-08-30T00:36:10;10.6;;;7.6;;
51194;SDS011;37259;49.972;19.850;2023-08-30T00:37:10;10.6;;;7.6;;
51194;SDS011;37259;49.972;19.850;2023-08-30T00:38:10;10.6;;;7.6;;
51194;SDS011;37259;49.972;19.850;2023-08-30T00:39:10;10.6;;;7.6;;
51194;SDS011;37259;49.972;19.850;2023-08-30T00:40:10;10.6;;;7.6;;
51194;SDS011;37259;49.972;19.850;2023-08-30T00:41:10;10.6;;;7.6;;
51194;SDS011;37259;49.972;19.850;2023-08-30T00:42:10;10.6;;;7.6;;
51194;SDS011;37259;49.972;19.850;2023-08-30T00:43:10;10.6;;;7.6;;
51194;SDS011;37259;49.972;19.850;2023-08-30T00:44:10;10.6;;;7.6;;
51194;SDS011;37259;49.972;19.850;2023-08-30T00:45:10;10.6;;;7.6;;
51194;SDS011;37259;49.972;19.850;2023-08-30T00:46:10;10.6;;;7.6;;
51194;SDS011;37259;49.972;19.850;2023-08-30T00:47:10;10.6;;;7.6;;
51194;SDS011;37259;49.972;19.850;2023-08-30T00:48:10;10.6;;;7.6;;
51194;SDS011;37259;49.972;19.850;2023-08-30T00:49:10;10.6;;;7.6;;
51194;SDS011;37259;49.972;19.850;2023-08-30T00:50:10;10.9;;;7.3;;
51194;SDS011;37259;49.972;19.850;2023-08-30T00:51:10;10.9;;;7.3;;
51194;SDS011;37259;49.972;19.850;2023-08-30T00:52:10;10.9;;;7.3;;
51194;SDS011;37259;49.972;19.850;2023-08-30T00:53:10;10.9;;;7.3;;
51194;SDS011;37259;49.972;19.850;2023-08-30T00:54:10;10.9;;;7.3;;
51194;SDS011;37259;49.972;19.850;2023-08-30T00:55:10;10.9;;;7.3;;
51194;SDS011;37259;49.972;19.850;2023-08-30T00:56:10;10.9;;;7.3;;
51194;SDS011;37259;49.972;19.850;2023-08-30T00:57:10;10.9;;;7.3;;
51194;SDS011;37259;49.972;19.850;2023-08-30T00:58:10;10.9;;;7.3;;
51194;SDS011;37259;49.972;19.850;2023-08-30T00:59:10;10.9;;;7.3;;
51194;SDS011;37259;49.972;19.850;2023-08-30T01:00:10;10.9;;;7.3;;
51194;SDS011;37259;49.972;19.850;2023-08-30T01:01:10;10.9;;;7.3;;
51194;SDS011;37259;49.972;19.850;2023-08-30T01:02:10;10.9;;;7.3;;
51194;SDS011;37259;49.972;19.850;2023-08-30T01:03:10;10.9;;;7.3;;
51194;SDS011;37259;49.972;19.850;2023-08-30T01:04:10;10.9;;;7.3;;
51194;SDS011;37259;49.972;19.850;2023-08-30T01:05:10;10.9;;;7.3;;
51194;SDS011;37259;49.972;19.850;2023-08-30T01:06:10;10.9;;;7.3;;
51194;SDS011;37259;49.972;19.850;2023-08-30T01:07:10;10.9;;;7.3;;
51194;SDS011;37259;49.972;19.850;2023-08-30T01:08:10;10.9;;;7.3;;
51194;SDS011;37259;49.972;19.850;2023-08-30T01:09:10;10.9;;;7.3;;
51194;SDS011;37259;49.972;19.850;2023-08-30T01:10:10;10.9;;;7.3;;
51194;SDS011;37259;49.972;19.850;2023-08-30T01:11:11;10.9;;;7.3;;
51194;SDS011;37259;49.972;19.850;2023-08-30T01:12:11;10.9;;;7.3;;
51194;SDS011;37259;49.972;19.850;2023-08-30T01:13:10;10.9;;;7.3;;
51194;SDS011;37259;49.972;19.850;2023-08-30T01:15:10;10.9;;;7.3;;
51194;SDS011;37259;49.972;19.850;2023-08-30T01:16:10;10.9;;;7.3;;
51194;SDS011;37259;49.972;19.850;2023-08-30T01:17:10;10.9;;;7.3;;
51194;SDS011;37259;49.972;19.850;2023-08-30T01:18:10;10.9;;;7.3;;
51194;SDS011;37259;49.972;19.850;2023-08-30T01:19:15;10.9;;;7.3;;
51194;SDS011;37259;49.972;19.850;2023-08-30T01:20:10;8.8;;;5.9;;
51194;SDS011;37259;49.972;19.850;2023-08-30T01:21:12;8.8;;;5.9;;
51194;SDS011;37259;49.972;19.850;2023-08-30T01:22:11;8.8;;;5.9;;
51194;SDS011;37259;49.972;19.850;2023-08-30T01:23:11;8.8;;;5.9;;
51194;SDS011;37259;49.972;19.850;2023-08-30T01:24:10;8.8;;;5.9;;
51194;SDS011;37259;49.972;19.850;2023-08-30T01:25:12;8.8;;;5.9;;
51194;SDS011;37259;49.972;19.850;2023-08-30T01:26:11;8.8;;;5.9;;
51194;SDS011;37259;49.972;19.850;2023-08-30T01:27:10;8.8;;;5.9;;
51194;SDS011;37259;49.972;19.850;2023-08-30T01:28:10;8.8;;;5.9;;
51194;SDS011;37259;49.972;19.850;2023-08-30T01:29:10;8.8;;;5.9;;
51194;SDS011;37259;49.972;19.850;2023-08-30T01:30:10;8.8;;;5.9;;
51194;SDS011;37259;49.972;19.850;2023-08-30T01:31:10;8.8;;;5.9;;
51194;SDS011;37259;49.972;19.850;2023-08-30T01:32:10;8.8;;;5.9;;
51194;SDS011;37259;49.972;19.850;2023-08-30T01:33:10;8.8;;;5.9;;
51194;SDS011;37259;49.972;19.850;2023-08-30T01:34:10;8.8;;;5.9;;
51194;SDS011;37259;49.972;19.850;2023-08-30T01:35:10;8.8;;;5.9;;
51194;SDS011;37259;49.972;19.850;2023-08-30T01:36:10;8.8;;;5.9;;
51194;SDS011;37259;49.972;19.850;2023-08-30T01:37:10;8.8;;;5.9;;
51194;SDS011;37259;49.972;19.850;2023-08-30T01:38:10;8.8;;;5.9;;
51194;SDS011;37259;49.972;19.850;2023-08-30T01:39:10;8.8;;;5.9;;
51194;SDS011;37259;49.972;19.850;2023-08-30T01:40:10;8.8;;;5.9;;
51194;SDS011;37259;49.972;19.850;2023-08-30T01:41:10;8.8;;;5.9;;
51194;SDS011;37259;49.972;19.850;2023-08-30T01:42:10;8.8;;;5.9;;
51194;SDS011;37259;49.972;19.850;2023-08-30T01:43:10;8.8;;;5.9;;
51194;SDS011;37259;49.972;19.850;2023-08-30T01:44:10;8.8;;;5.9;;
51194;SDS011;37259;49.972;19.850;2023-08-30T01:45:10;8.8;;;5.9;;
51194;SDS011;37259;49.972;19.850;2023-08-30T01:46:10;8.8;;;5.9;;
51194;SDS011;37259;49.972;19.850;2023-08-30T01:47:10;8.8;;;5.9;;
51194;SDS011;37259;49.972;19.850;2023-08-30T01:48:10;8.8;;;5.9;;
51194;SDS011;37259;49.972;19.850;2023-08-30T01:49:10;8.8;;;5.9;;
51194;SDS011;37259;49.972;19.850;2023-08-30T01:50:10;10.7;;;7;;
51194;SDS011;37259;49.972;19.850;2023-08-30T01:51:10;10.7;;;7;;
51194;SDS011;37259;49.972;19.850;2023-08-30T01:52:10;10.7;;;7;;
51194;SDS011;37259;49.972;19.850;2023-08-30T01:53:10;10.7;;;7;;
51194;SDS011;37259;49.972;19.850;2023-08-30T01:54:10;10.7;;;7;;
51194;SDS011;37259;49.972;19.850;2023-08-30T01:55:10;10.7;;;7;;
51194;SDS011;37259;49.972;19.850;2023-08-30T01:56:10;10.7;;;7;;
51194;SDS011;37259;49.972;19.850;2023-08-30T01:57:10;10.7;;;7;;
51194;SDS011;37259;49.972;19.850;2023-08-30T01:58:10;10.7;;;7;;
51194;SDS011;37259;49.972;19.850;2023-08-30T01:59:10;10.7;;;7;;
51194;SDS011;37259;49.972;19.850;2023-08-30T02:00:10;10.7;;;7;;
51194;SDS011;37259;49.972;19.850;2023-08-30T02:01:10;10.7;;;7;;
51194;SDS011;37259;49.972;19.850;2023-08-30T02:02:10;10.7;;;7;;
51194;SDS011;37259;49.972;19.850;2023-08-30T02:03:10;10.7;;;7;;
51194;SDS011;37259;49.972;19.850;2023-08-30T02:04:10;10.7;;;7;;
51194;SDS011;37259;49.972;19.850;2023-08-30T02:05:10;10.7;;;7;;
51194;SDS011;37259;49.972;19.850;2023-08-30T02:06:11;10.7;;;7;;
51194;SDS011;37259;49.972;19.850;2023-08-30T02:07:11;10.7;;;7;;
51194;SDS011;37259;49.972;19.850;2023-08-30T02:08:13;10.7;;;7;;
51194;SDS011;37259;49.972;19.850;2023-08-30T02:09:14;10.7;;;7;;
51194;SDS011;37259;49.972;19.850;2023-08-30T02:10:10;10.7;;;7;;
51194;SDS011;37259;49.972;19.850;2023-08-30T02:11:11;10.7;;;7;;
51194;SDS011;37259;49.972;19.850;2023-08-30T02:12:10;10.7;;;7;;
51194;SDS011;37259;49.972;19.850;2023-08-30T02:13:11;10.7;;;7;;
51194;SDS011;37259;49.972;19.850;2023-08-30T02:14:10;10.7;;;7;;
51194;SDS011;37259;49.972;19.850;2023-08-30T02:15:10;10.7;;;7;;
51194;SDS011;37259;49.972;19.850;2023-08-30T02:16:10;10.7;;;7;;
51194;SDS011;37259;49.972;19.850;2023-08-30T02:17:10;10.7;;;7;;
51194;SDS011;37259;49.972;19.850;2023-08-30T02:18:10;10.7;;;7;;
51194;SDS011;37259;49.972;19.850;2023-08-30T02:19:10;10.7;;;7;;
51194;SDS011;37259;49.972;19.850;2023-08-30T02:20:10;10.5;;;7.9;;
51194;SDS011;37259;49.972;19.850;2023-08-30T02:21:10;10.5;;;7.9;;
51194;SDS011;37259;49.972;19.850;2023-08-30T02:22:10;10.5;;;7.9;;
51194;SDS011;37259;49.972;19.850;2023-08-30T02:23:10;10.5;;;7.9;;
51194;SDS011;37259;49.972;19.850;2023-08-30T02:24:10;10.5;;;7.9;;
51194;SDS011;37259;49.972;19.850;2023-08-30T02:25:10;10.5;;;7.9;;
51194;SDS011;37259;49.972;19.850;2023-08-30T02:26:10;10.5;;;7.9;;
51194;SDS011;37259;49.972;19.850;2023-08-30T02:27:10;10.5;;;7.9;;
51194;SDS011;37259;49.972;19.850;2023-08-30T02:28:10;10.5;;;7.9;;
51194;SDS011;37259;49.972;19.850;2023-08-30T02:29:10;10.5;;;7.9;;
51194;SDS011;37259;49.972;19.850;2023-08-30T02:30:11;10.5;;;7.9;;
51194;SDS011;37259;49.972;19.850;2023-08-30T02:31:10;10.5;;;7.9;;
51194;SDS011;37259;49.972;19.850;2023-08-30T02:32:10;10.5;;;7.9;;
51194;SDS011;37259;49.972;19.850;2023-08-30T02:33:10;10.5;;;7.9;;
51194;SDS011;37259;49.972;19.850;2023-08-30T02:34:10;10.5;;;7.9;;
51194;SDS011;37259;49.972;19.850;2023-08-30T02:35:10;10.5;;;7.9;;
51194;SDS011;37259;49.972;19.850;2023-08-30T02:36:10;10.5;;;7.9;;
51194;SDS011;37259;49.972;19.850;2023-08-30T02:37:10;10.5;;;7.9;;
51194;SDS011;37259;49.972;19.850;2023-08-30T02:38:10;10.5;;;7.9;;
51194;SDS011;37259;49.972;19.850;2023-08-30T02:39:10;10.5;;;7.9;;
51194;SDS011;37259;49.972;19.850;2023-08-30T02:40:10;10.5;;;7.9;;
51194;SDS011;37259;49.972;19.850;2023-08-30T02:41:10;10.5;;;7.9;;
51194;SDS011;37259;49.972;19.850;2023-08-30T02:42:10;10.5;;;7.9;;
51194;SDS011;37259;49.972;19.850;2023-08-30T02:43:10;10.5;;;7.9;;
51194;SDS011;37259;49.972;19.850;2023-08-30T02:44:10;10.5;;;7.9;;
51194;SDS011;37259;49.972;19.850;2023-08-30T02:45:10;10.5;;;7.9;;
51194;SDS011;37259;49.972;19.850;2023-08-30T02:46:10;10.5;;;7.9;;
51194;SDS011;37259;49.972;19.850;2023-08-30T02:47:10;10.5;;;7.9;;
51194;SDS011;37259;49.972;19.850;2023-08-30T02:48:10;10.5;;;7.9;;
51194;SDS011;37259;49.972;19.850;2023-08-30T02:49:10;10.5;;;7.9;;
51194;SDS011;37259;49.972;19.850;2023-08-30T02:50:10;10.7;;;6.9;;
51194;SDS011;37259;49.972;19.850;2023-08-30T02:51:10;10.7;;;6.9;;
51194;SDS011;37259;49.972;19.850;2023-08-30T02:52:10;10.7;;;6.9;;
51194;SDS011;37259;49.972;19.850;2023-08-30T02:53:10;10.7;;;6.9;;
51194;SDS011;37259;49.972;19.850;2023-08-30T02:54:10;10.7;;;6.9;;
51194;SDS011;37259;49.972;19.850;2023-08-30T02:55:10;10.7;;;6.9;;
51194;SDS011;37259;49.972;19.850;2023-08-30T02:56:10;10.7;;;6.9;;
51194;SDS011;37259;49.972;19.850;2023-08-30T02:57:10;10.7;;;6.9;;
51194;SDS011;37259;49.972;19.850;2023-08-30T02:58:10;10.7;;;6.9;;
51194;SDS011;37259;49.972;19.850;2023-08-30T02:59:10;10.7;;;6.9;;
51194;SDS011;37259;49.972;19.850;2023-08-30T03:00:10;10.7;;;6.9;;
51194;SDS011;37259;49.972;19.850;2023-08-30T03:01:10;10.7;;;6.9;;
51194;SDS011;37259;49.972;19.850;2023-08-30T03:02:10;10.7;;;6.9;;
51194;SDS011;37259;49.972;19.850;2023-08-30T03:03:10;10.7;;;6.9;;
51194;SDS011;37259;49.972;19.850;2023-08-30T03:04:10;10.7;;;6.9;;
51194;SDS011;37259;49.972;19.850;2023-08-30T03:05:10;10.7;;;6.9;;
51194;SDS011;37259;49.972;19.850;2023-08-30T03:06:10;10.7;;;6.9;;
51194;SDS011;37259;49.972;19.850;2023-08-30T03:07:10;10.7;;;6.9;;
51194;SDS011;37259;49.972;19.850;2023-08-30T03:08:10;10.7;;;6.9;;
51194;SDS011;37259;49.972;19.850;2023-08-30T03:09:10;10.7;;;6.9;;
51194;SDS011;37259;49.972;19.850;2023-08-30T03:10:11;10.7;;;6.9;;
51194;SDS011;37259;49.972;19.850;2023-08-30T03:11:10;10.7;;;6.9;;
51194;SDS011;37259;49.972;19.850;2023-08-30T03:12:10;10.7;;;6.9;;
51194;SDS011;37259;49.972;19.850;2023-08-30T03:13:10;10.7;;;6.9;;
51194;SDS011;37259;49.972;19.850;2023-08-30T03:14:10;10.7;;;6.9;;
51194;SDS011;37259;49.972;19.850;2023-08-30T03:15:10;10.7;;;6.9;;
51194;SDS011;37259;49.972;19.850;2023-08-30T03:16:10;10.7;;;6.9;;
51194;SDS011;37259;49.972;19.850;2023-08-30T03:17:10;10.7;;;6.9;;
51194;SDS011;37259;49.972;19.850;2023-08-30T03:18:10;10.7;;;6.9;;
51194;SDS011;37259;49.972;19.850;2023-08-30T03:19:10;10.7;;;6.9;;
51194;SDS011;37259;49.972;19.850;2023-08-30T03:20:10;9.7;;;6.9;;
51194;SDS011;37259;49.972;19.850;2023-08-30T03:21:10;9.7;;;6.9;;
51194;SDS011;37259;49.972;19.850;2023-08-30T03:22:10;9.7;;;6.9;;
51194;SDS011;37259;49.972;19.850;2023-08-30T03:23:10;9.7;;;6.9;;
51194;SDS011;37259;49.972;19.850;2023-08-30T03:24:10;9.7;;;6.9;;
51194;SDS011;37259;49.972;19.850;2023-08-30T03:25:10;9.7;;;6.9;;
51194;SDS011;37259;49.972;19.850;2023-08-30T03:26:10;9.7;;;6.9;;
51194;SDS011;37259;49.972;19.850;2023-08-30T03:27:10;9.7;;;6.9;;
51194;SDS011;37259;49.972;19.850;2023-08-30T03:28:10;9.7;;;6.9;;
51194;SDS011;37259;49.972;19.850;2023-08-30T03:29:10;9.7;;;6.9;;
51194;SDS011;37259;49.972;19.850;2023-08-30T03:30:10;9.7;;;6.9;;
51194;SDS011;37259;49.972;19.850;2023-08-30T03:31:11;9.7;;;6.9;;
51194;SDS011;37259;49.972;19.850;2023-08-30T03:32:10;9.7;;;6.9;;
51194;SDS011;37259;49.972;19.850;2023-08-30T03:33:10;9.7;;;6.9;;
51194;SDS011;37259;49.972;19.850;2023-08-30T03:34:10;9.7;;;6.9;;
51194;SDS011;37259;49.972;19.850;2023-08-30T03:35:10;9.7;;;6.9;;
51194;SDS011;37259;49.972;19.850;2023-08-30T03:36:10;9.7;;;6.9;;
51194;SDS011;37259;49.972;19.850;2023-08-30T03:37:10;9.7;;;6.9;;
51194;SDS011;37259;49.972;19.850;2023-08-30T03:38:10;9.7;;;6.9;;
51194;SDS011;37259;49.972;19.850;2023-08-30T03:39:12;9.7;;;6.9;;
51194;SDS011;37259;49.972;19.850;2023-08-30T03:40:10;9.7;;;6.9;;
51194;SDS011;37259;49.972;19.850;2023-08-30T03:41:20;9.7;;;6.9;;
51194;SDS011;37259;49.972;19.850;2023-08-30T03:42:12;9.7;;;6.9;;
51194;SDS011;37259;49.972;19.850;2023-08-30T03:43:12;9.7;;;6.9;;
51194;SDS011;37259;49.972;19.850;2023-08-30T03:44:12;9.7;;;6.9;;
51194;SDS011;37259;49.972;19.850;2023-08-30T03:45:13;9.7;;;6.9;;
51194;SDS011;37259;49.972;19.850;2023-08-30T03:46:12;9.7;;;6.9;;
51194;SDS011;37259;49.972;19.850;2023-08-30T03:47:12;9.7;;;6.9;;
51194;SDS011;37259;49.972;19.850;2023-08-30T03:48:12;9.7;;;6.9;;
51194;SDS011;37259;49.972;19.850;2023-08-30T03:49:12;9.7;;;6.9;;
51194;SDS011;37259;49.972;19.850;2023-08-30T03:50:12;14.9;;;10.9;;
51194;SDS011;37259;49.972;19.850;2023-08-30T03:51:12;14.9;;;10.9;;
51194;SDS011;37259;49.972;19.850;2023-08-30T03:52:12;14.9;;;10.9;;
51194;SDS011;37259;49.972;19.850;2023-08-30T03:53:12;14.9;;;10.9;;
51194;SDS011;37259;49.972;19.850;2023-08-30T03:54:12;14.9;;;10.9;;
51194;SDS011;37259;49.972;19.850;2023-08-30T03:55:12;14.9;;;10.9;;
51194;SDS011;37259;49.972;19.850;2023-08-30T03:56:12;14.9;;;10.9;;
51194;SDS011;37259;49.972;19.850;2023-08-30T03:57:12;14.9;;;10.9;;
51194;SDS011;37259;49.972;19.850;2023-08-30T03:58:12;14.9;;;10.9;;
51194;SDS011;37259;49.972;19.850;2023-08-30T03:59:12;14.9;;;10.9;;
51194;SDS011;37259;49.972;19.850;2023-08-30T04:00:12;14.9;;;10.9;;
51194;SDS011;37259;49.972;19.850;2023-08-30T04:01:12;14.9;;;10.9;;
51194;SDS011;37259;49.972;19.850;2023-08-30T04:02:12;14.9;;;10.9;;
51194;SDS011;37259;49.972;19.850;2023-08-30T04:03:12;14.9;;;10.9;;
51194;SDS011;37259;49.972;19.850;2023-08-30T04:04:12;14.9;;;10.9;;
51194;SDS011;37259;49.972;19.850;2023-08-30T04:05:12;14.9;;;10.9;;
51194;SDS011;37259;49.972;19.850;2023-08-30T04:06:12;14.9;;;10.9;;
51194;SDS011;37259;49.972;19.850;2023-08-30T04:07:12;14.9;;;10.9;;
51194;SDS011;37259;49.972;19.850;2023-08-30T04:08:12;14.9;;;10.9;;
51194;SDS011;37259;49.972;19.850;2023-08-30T04:09:12;14.9;;;10.9;;
51194;SDS011;37259;49.972;19.850;2023-08-30T04:10:12;14.9;;;10.9;;
51194;SDS011;37259;49.972;19.850;2023-08-30T04:11:12;14.9;;;10.9;;
51194;SDS011;37259;49.972;19.850;2023-08-30T04:12:12;14.9;;;10.9;;
51194;SDS011;37259;49.972;19.850;2023-08-30T04:13:12;14.9;;;10.9;;
51194;SDS011;37259;49.972;19.850;2023-08-30T04:14:12;14.9;;;10.9;;
51194;SDS011;37259;49.972;19.850;2023-08-30T04:15:12;14.9;;;10.9;;
51194;SDS011;37259;49.972;19.850;2023-08-30T04:16:12;14.9;;;10.9;;
51194;SDS011;37259;49.972;19.850;2023-08-30T04:17:12;14.9;;;10.9;;
51194;SDS011;37259;49.972;19.850;2023-08-30T04:18:12;14.9;;;10.9;;
51194;SDS011;37259;49.972;19.850;2023-08-30T04:19:12;14.9;;;10.9;;
51194;SDS011;37259;49.972;19.850;2023-08-30T04:20:12;15.7;;;12.1;;
51194;SDS011;37259;49.972;19.850;2023-08-30T04:21:12;15.7;;;12.1;;
51194;SDS011;37259;49.972;19.850;2023-08-30T04:22:12;15.7;;;12.1;;
51194;SDS011;37259;49.972;19.850;2023-08-30T04:23:12;15.7;;;12.1;;
51194;SDS011;37259;49.972;19.850;2023-08-30T04:24:12;15.7;;;12.1;;
51194;SDS011;37259;49.972;19.850;2023-08-30T04:25:12;15.7;;;12.1;;
51194;SDS011;37259;49.972;19.850;2023-08-30T04:26:12;15.7;;;12.1;;
51194;SDS011;37259;49.972;19.850;2023-08-30T04:27:12;15.7;;;12.1;;
51194;SDS011;37259;49.972;19.850;2023-08-30T04:28:12;15.7;;;12.1;;
51194;SDS011;37259;49.972;19.850;2023-08-30T04:29:12;15.7;;;12.1;;
51194;SDS011;37259;49.972;19.850;2023-08-30T04:30:12;15.7;;;12.1;;
51194;SDS011;37259;49.972;19.850;2023-08-30T04:31:12;15.7;;;12.1;;
51194;SDS011;37259;49.972;19.850;2023-08-30T04:32:12;15.7;;;12.1;;
51194;SDS011;37259;49.972;19.850;2023-08-30T04:33:12;15.7;;;12.1;;
51194;SDS011;37259;49.972;19.850;2023-08-30T04:34:12;15.7;;;12.1;;
51194;SDS011;37259;49.972;19.850;2023-08-30T04:35:12;15.7;;;12.1;;
51194;SDS011;37259;49.972;19.850;2023-08-30T04:36:12;15.7;;;12.1;;
51194;SDS011;37259;49.972;19.850;2023-08-30T04:37:12;15.7;;;12.1;;
51194;SDS011;37259;49.972;19.850;2023-08-30T04:38:12;15.7;;;12.1;;
51194;SDS011;37259;49.972;19.850;2023-08-30T04:39:12;15.7;;;12.1;;
51194;SDS011;37259;49.972;19.850;2023-08-30T04:40:12;15.7;;;12.1;;
51194;SDS011;37259;49.972;19.850;2023-08-30T04:41:12;15.7;;;12.1;;
51194;SDS011;37259;49.972;19.850;2023-08-30T04:42:12;15.7;;;12.1;;
51194;SDS011;37259;49.972;19.850;2023-08-30T04:43:12;15.7;;;12.1;;
51194;SDS011;37259;49.972;19.850;2023-08-30T04:44:12;15.7;;;12.1;;
51194;SDS011;37259;49.972;19.850;2023-08-30T04:45:12;15.7;;;12.1;;
51194;SDS011;37259;49.972;19.850;2023-08-30T04:46:12;15.7;;;12.1;;
51194;SDS011;37259;49.972;19.850;2023-08-30T04:47:12;15.7;;;12.1;;
51194;SDS011;37259;49.972;19.850;2023-08-30T04:48:12;15.7;;;12.1;;
51194;SDS011;37259;49.972;19.850;2023-08-30T04:49:12;15.7;;;12.1;;
51194;SDS011;37259;49.972;19.850;2023-08-30T04:50:12;18.6;;;12.4;;
51194;SDS011;37259;49.972;19.850;2023-08-30T04:51:12;18.6;;;12.4;;
51194;SDS011;37259;49.972;19.850;2023-08-30T04:52:12;18.6;;;12.4;;
51194;SDS011;37259;49.972;19.850;2023-08-30T04:53:12;18.6;;;12.4;;
51194;SDS011;37259;49.972;19.850;2023-08-30T04:54:12;18.6;;;12.4;;
51194;SDS011;37259;49.972;19.850;2023-08-30T04:55:12;18.6;;;12.4;;
51194;SDS011;37259;49.972;19.850;2023-08-30T04:56:12;18.6;;;12.4;;
51194;SDS011;37259;49.972;19.850;2023-08-30T04:57:12;18.6;;;12.4;;
51194;SDS011;37259;49.972;19.850;2023-08-30T04:58:12;18.6;;;12.4;;
51194;SDS011;37259;49.972;19.850;2023-08-30T04:59:12;18.6;;;12.4;;
51194;SDS011;37259;49.972;19.850;2023-08-30T05:00:13;18.6;;;12.4;;
51194;SDS011;37259;49.972;19.850;2023-08-30T05:01:12;18.6;;;12.4;;
51194;SDS011;37259;49.972;19.850;2023-08-30T05:02:12;18.6;;;12.4;;
51194;SDS011;37259;49.972;19.850;2023-08-30T05:03:12;18.6;;;12.4;;
51194;SDS011;37259;49.972;19.850;2023-08-30T05:04:12;18.6;;;12.4;;
51194;SDS011;37259;49.972;19.850;2023-08-30T05:05:12;18.6;;;12.4;;
51194;SDS011;37259;49.972;19.850;2023-08-30T05:06:12;18.6;;;12.4;;
51194;SDS011;37259;49.972;19.850;2023-08-30T05:07:12;18.6;;;12.4;;
51194;SDS011;37259;49.972;19.850;2023-08-30T05:08:12;18.6;;;12.4;;
51194;SDS011;37259;49.972;19.850;2023-08-30T05:09:12;18.6;;;12.4;;
51194;SDS011;37259;49.972;19.850;2023-08-30T05:10:12;18.6;;;12.4;;
51194;SDS011;37259;49.972;19.850;2023-08-30T05:11:12;18.6;;;12.4;;
51194;SDS011;37259;49.972;19.850;2023-08-30T05:12:12;18.6;;;12.4;;
51194;SDS011;37259;49.972;19.850;2023-08-30T05:13:14;18.6;;;12.4;;
51194;SDS011;37259;49.972;19.850;2023-08-30T05:14:12;18.6;;;12.4;;
51194;SDS011;37259;49.972;19.850;2023-08-30T05:15:12;18.6;;;12.4;;
51194;SDS011;37259;49.972;19.850;2023-08-30T05:16:12;18.6;;;12.4;;
51194;SDS011;37259;49.972;19.850;2023-08-30T05:17:12;18.6;;;12.4;;
51194;SDS011;37259;49.972;19.850;2023-08-30T05:18:12;18.6;;;12.4;;
51194;SDS011;37259;49.972;19.850;2023-08-30T05:19:12;18.6;;;12.4;;
51194;SDS011;37259;49.972;19.850;2023-08-30T05:20:12;18;;;14;;
51194;SDS011;37259;49.972;19.850;2023-08-30T05:21:12;18;;;14;;
51194;SDS011;37259;49.972;19.850;2023-08-30T05:22:12;18;;;14;;
51194;SDS011;37259;49.972;19.850;2023-08-30T05:23:12;18;;;14;;
51194;SDS011;37259;49.972;19.850;2023-08-30T05:24:12;18;;;14;;
51194;SDS011;37259;49.972;19.850;2023-08-30T05:25:12;18;;;14;;
51194;SDS011;37259;49.972;19.850;2023-08-30T05:26:12;18;;;14;;
51194;SDS011;37259;49.972;19.850;2023-08-30T05:27:12;18;;;14;;
51194;SDS011;37259;49.972;19.850;2023-08-30T05:28:12;18;;;14;;
51194;SDS011;37259;49.972;19.850;2023-08-30T05:29:12;18;;;14;;
51194;SDS011;37259;49.972;19.850;2023-08-30T05:30:12;18;;;14;;
51194;SDS011;37259;49.972;19.850;2023-08-30T05:31:12;18;;;14;;
51194;SDS011;37259;49.972;19.850;2023-08-30T05:32:12;18;;;14;;
51194;SDS011;37259;49.972;19.850;2023-08-30T05:33:12;18;;;14;;
51194;SDS011;37259;49.972;19.850;2023-08-30T05:34:12;18;;;14;;
51194;SDS011;37259;49.972;19.850;2023-08-30T05:35:12;18;;;14;;
51194;SDS011;37259;49.972;19.850;2023-08-30T05:36:12;18;;;14;;
51194;SDS011;37259;49.972;19.850;2023-08-30T05:37:12;18;;;14;;
51194;SDS011;37259;49.972;19.850;2023-08-30T05:38:12;18;;;14;;
51194;SDS011;37259;49.972;19.850;2023-08-30T05:39:12;18;;;14;;
51194;SDS011;37259;49.972;19.850;2023-08-30T05:40:13;18;;;14;;
51194;SDS011;37259;49.972;19.850;2023-08-30T05:41:12;18;;;14;;
51194;SDS011;37259;49.972;19.850;2023-08-30T05:42:12;18;;;14;;
51194;SDS011;37259;49.972;19.850;2023-08-30T05:43:12;18;;;14;;
51194;SDS011;37259;49.972;19.850;2023-08-30T05:44:12;18;;;14;;
51194;SDS011;37259;49.972;19.850;2023-08-30T05:45:12;18;;;14;;
51194;SDS011;37259;49.972;19.850;2023-08-30T05:46:12;18;;;14;;
51194;SDS011;37259;49.972;19.850;2023-08-30T05:47:12;18;;;14;;
51194;SDS011;37259;49.972;19.850;2023-08-30T05:48:12;18;;;14;;
51194;SDS011;37259;49.972;19.850;2023-08-30T05:49:12;18;;;14;;
51194;SDS011;37259;49.972;19.850;2023-08-30T05:50:12;20.4;;;14.1;;
51194;SDS011;37259;49.972;19.850;2023-08-30T05:51:12;20.4;;;14.1;;
51194;SDS011;37259;49.972;19.850;2023-08-30T05:52:14;20.4;;;14.1;;
51194;SDS011;37259;49.972;19.850;2023-08-30T05:53:12;20.4;;;14.1;;
51194;SDS011;37259;49.972;19.850;2023-08-30T05:54:12;20.4;;;14.1;;
51194;SDS011;37259;49.972;19.850;2023-08-30T05:55:12;20.4;;;14.1;;
51194;SDS011;37259;49.972;19.850;2023-08-30T05:56:12;20.4;;;14.1;;
51194;SDS011;37259;49.972;19.850;2023-08-30T05:57:12;20.4;;;14.1;;
51194;SDS011;37259;49.972;19.850;2023-08-30T05:58:12;20.4;;;14.1;;
51194;SDS011;37259;49.972;19.850;2023-08-30T05:59:12;20.4;;;14.1;;
51194;SDS011;37259;49.972;19.850;2023-08-30T06:00:12;20.4;;;14.1;;
51194;SDS011;37259;49.972;19.850;2023-08-30T06:01:13;20.4;;;14.1;;
51194;SDS011;37259;49.972;19.850;2023-08-30T06:02:12;20.4;;;14.1;;
51194;SDS011;37259;49.972;19.850;2023-08-30T06:03:12;20.4;;;14.1;;